Time;durP1;ratioP1;P1;durP2;ratioP2;P2;SDS_P1;SDS_P2;PMS_P1;PMS_P2;Temp;Humidity;BMP_temperature;BMP_pressure;BME280_temperature;BME280_humidity;BME280_pressure;Samples;Min_cycle;Max_cycle;Signal;HPM_P1;HPM_P2
2022/08/07 00:01:11;;;;;;;0.40;0.40;;;12.40;64.10;12.30;101581.00;;;;4997662;27;87898;-63
2022/08/07 00:03:37;;;;;;;0.50;0.50;;;12.40;64.50;12.30;101594.00;;;;5012191;27;92698;-62
2022/08/07 00:06:04;;;;;;;0.50;0.30;;;12.30;64.90;12.10;101578.00;;;;5013708;27;116924;-62
2022/08/07 00:08:30;;;;;;;0.60;0.57;;;12.40;65.60;12.10;101577.00;;;;4994946;27;88113;-62
2022/08/07 00:10:56;;;;;;;0.87;0.57;;;12.10;65.80;12.10;101582.00;;;;4994884;28;107725;-63
2022/08/07 00:13:23;;;;;;;1.03;0.40;;;12.10;66.10;12.00;101581.00;;;;4996398;27;99323;-63
2022/08/07 00:15:50;;;;;;;0.40;0.40;;;12.00;66.40;12.00;101573.00;;;;4995476;28;89213;-62
2022/08/07 00:18:23;;;;;;;0.50;0.50;;;12.10;66.70;12.00;101574.00;;;;5008820;27;110244;-62
2022/08/07 00:20:49;;;;;;;0.30;0.30;;;12.00;67.00;12.00;101574.00;;;;4995867;28;87598;-62
2022/08/07 00:23:15;;;;;;;0.40;0.40;;;12.10;67.20;12.00;101575.00;;;;4997230;27;88398;-62
2022/08/07 00:25:41;;;;;;;1.97;0.70;;;12.00;67.30;12.00;101578.00;;;;4995471;27;87976;-62
2022/08/07 00:28:06;;;;;;;0.90;0.53;;;12.00;67.50;11.90;101577.00;;;;4994765;27;91755;-62
2022/08/07 00:30:32;;;;;;;0.97;0.40;;;12.00;67.80;11.90;101575.00;;;;4995117;27;107484;-61
2022/08/07 00:32:59;;;;;;;2.43;0.50;;;11.90;68.00;11.80;101577.00;;;;4993944;27;117605;-62
2022/08/07 00:35:27;;;;;;;0.77;0.73;;;11.80;68.40;11.80;101573.00;;;;4995636;27;107382;-62
2022/08/07 00:37:53;;;;;;;0.63;0.47;;;11.80;68.80;11.80;101568.00;;;;4995701;27;88719;-62
2022/08/07 00:40:20;;;;;;;0.40;0.40;;;11.80;69.20;11.70;101565.00;;;;4995391;28;87775;-62
2022/08/07 00:42:46;;;;;;;0.77;0.77;;;11.70;69.60;11.70;101567.00;;;;5020935;27;88638;-62
2022/08/07 00:45:12;;;;;;;0.40;0.40;;;11.90;70.00;11.70;101572.00;;;;5012092;27;117429;-62
2022/08/07 00:47:38;;;;;;;0.67;0.40;;;11.70;70.30;11.70;101564.00;;;;5013899;27;88098;-62
2022/08/07 00:50:05;;;;;;;0.90;0.83;;;11.60;70.50;11.60;101564.00;;;;5010423;27;87849;-63
2022/08/07 00:52:31;;;;;;;0.93;0.83;;;11.60;70.80;11.60;101565.00;;;;4998355;28;88550;-62
2022/08/07 00:54:57;;;;;;;1.43;0.97;;;11.60;71.00;11.50;101568.00;;;;5016035;27;107346;-62
2022/08/07 00:57:24;;;;;;;1.10;0.93;;;11.50;71.30;11.40;101567.00;;;;5017062;27;108622;-62
2022/08/07 00:59:50;;;;;;;2.20;0.80;;;11.50;71.70;11.40;101563.00;;;;5017737;27;92187;-62
2022/08/07 01:02:17;;;;;;;0.70;0.70;;;11.40;71.90;11.30;101564.00;;;;5015639;27;89471;-62
2022/08/07 01:04:42;;;;;;;0.50;0.50;;;11.30;72.10;11.30;101564.00;;;;5012049;27;91278;-62
2022/08/07 01:07:09;;;;;;;1.00;0.93;;;11.30;72.50;11.30;101573.00;;;;5007044;27;110221;-62
2022/08/07 01:09:35;;;;;;;1.80;1.40;;;11.40;72.90;11.20;101580.00;;;;5017043;27;87883;-62
2022/08/07 01:12:00;;;;;;;2.33;0.90;;;11.20;73.10;11.20;101569.00;;;;5015226;27;115224;-62
2022/08/07 01:14:27;;;;;;;1.60;1.17;;;11.20;73.30;11.10;101565.00;;;;5017750;27;116649;-62
2022/08/07 01:16:53;;;;;;;0.97;0.83;;;11.20;73.60;11.10;101566.00;;;;5003206;27;87939;-62
2022/08/07 01:19:20;;;;;;;1.07;0.80;;;11.10;73.70;11.00;101568.00;;;;5013408;27;87407;-62
2022/08/07 01:21:48;;;;;;;2.13;1.10;;;11.00;73.80;11.00;101565.00;;;;4999210;27;88193;-62
2022/08/07 01:24:16;;;;;;;0.60;0.60;;;11.00;74.10;10.90;101562.00;;;;4998215;28;88648;-62
2022/08/07 01:26:42;;;;;;;2.50;0.90;;;10.90;74.30;10.90;101572.00;;;;5013847;27;88949;-63
2022/08/07 01:29:08;;;;;;;1.23;0.93;;;10.90;74.40;10.90;101565.00;;;;5013522;27;96305;-62
2022/08/07 01:31:34;;;;;;;1.63;0.60;;;10.90;74.70;10.80;101569.00;;;;5001218;27;88171;-63
2022/08/07 01:34:01;;;;;;;1.47;1.33;;;10.80;74.70;10.80;101559.00;;;;5017159;27;118368;-63
2022/08/07 01:36:28;;;;;;;1.20;0.80;;;10.80;75.00;10.70;101555.00;;;;5018066;27;87918;-63
2022/08/07 01:38:55;;;;;;;1.63;1.10;;;10.80;75.40;10.70;101554.00;;;;5015716;27;91266;-63
2022/08/07 01:41:21;;;;;;;0.60;0.53;;;10.70;75.50;10.70;101555.00;;;;5014888;27;114340;-63
2022/08/07 01:43:48;;;;;;;0.90;0.70;;;10.70;75.80;10.60;101553.00;;;;5010929;27;119939;-63
2022/08/07 01:46:15;;;;;;;0.93;0.90;;;10.70;76.20;10.60;101554.00;;;;4997833;27;87505;-63
2022/08/07 01:48:46;;;;;;;1.03;0.50;;;10.70;76.50;10.60;101553.00;;;;4998209;27;87678;-62
2022/08/07 01:51:20;;;;;;;0.40;0.40;;;10.60;77.00;10.60;101558.00;;;;4996528;27;105847;-63
2022/08/07 01:53:51;;;;;;;1.57;0.87;;;10.60;77.50;10.50;101558.00;;;;4996884;27;99688;-63
2022/08/07 01:56:30;;;;;;;1.43;0.73;;;10.60;77.80;10.50;101556.00;;;;5012402;27;87710;-63
2022/08/07 01:59:07;;;;;;;5.07;1.13;;;10.50;78.10;10.40;101564.00;;;;5013089;27;88149;-62
2022/08/07 02:01:42;;;;;;;0.60;0.60;;;10.50;78.30;10.40;101554.00;;;;4997981;27;87875;-62
2022/08/07 02:04:16;;;;;;;0.70;0.70;;;10.40;78.50;10.40;101557.00;;;;4997316;28;88044;-63
2022/08/07 02:06:43;;;;;;;0.50;0.50;;;10.40;78.90;10.30;101567.00;;;;4997395;27;87750;-63
2022/08/07 02:09:15;;;;;;;2.67;1.10;;;10.40;79.00;10.30;101556.00;;;;5012351;27;87158;-63
2022/08/07 02:11:45;;;;;;;0.80;0.80;;;10.40;79.40;10.30;101552.00;;;;5014600;27;90184;-62
2022/08/07 02:14:13;;;;;;;2.00;1.30;;;10.30;79.60;10.20;101551.00;;;;5015063;27;97296;-62
2022/08/07 02:16:41;;;;;;;0.93;0.67;;;10.30;79.90;10.10;101559.00;;;;5014167;27;110049;-62
2022/08/07 02:19:12;;;;;;;0.60;0.60;;;10.20;80.10;10.10;101553.00;;;;5017187;27;87701;-63
2022/08/07 02:21:39;;;;;;;1.60;1.00;;;10.60;80.60;10.10;101559.00;;;;5006437;27;88306;-62
2022/08/07 02:24:07;;;;;;;0.67;0.67;;;10.00;80.40;10.00;101553.00;;;;5011806;27;87795;-62
2022/08/07 02:26:36;;;;;;;0.60;0.60;;;10.10;80.90;10.00;101559.00;;;;5012726;27;87577;-63
2022/08/07 02:29:06;;;;;;;1.80;0.50;;;10.00;81.00;10.00;101558.00;;;;5010745;27;108566;-63
2022/08/07 02:31:33;;;;;;;0.93;0.93;;;10.00;81.30;10.00;101554.00;;;;5011327;27;89352;-63
2022/08/07 02:34:01;;;;;;;2.80;0.90;;;10.00;81.60;9.90;101554.00;;;;4996435;28;102463;-63
2022/08/07 02:36:28;;;;;;;0.67;0.60;;;10.00;82.10;9.90;101556.00;;;;4997412;27;87760;-63
2022/08/07 02:38:56;;;;;;;0.97;0.83;;;9.90;82.20;9.90;101565.00;;;;5010626;27;109283;-63
2022/08/07 02:41:23;;;;;;;0.93;0.80;;;9.90;82.60;9.80;101568.00;;;;5012831;27;89243;-63
2022/08/07 02:43:50;;;;;;;1.20;0.83;;;9.90;83.10;9.90;101569.00;;;;4996587;27;89603;-63
2022/08/07 02:46:18;;;;;;;0.97;0.87;;;9.90;83.50;9.90;101574.00;;;;5013484;27;87912;-63
2022/08/07 02:48:44;;;;;;;0.60;0.60;;;9.90;83.90;9.80;101562.00;;;;5000987;27;98676;-62
2022/08/07 02:51:14;;;;;;;1.63;0.97;;;9.80;84.00;9.80;101556.00;;;;4996578;27;107467;-62
2022/08/07 02:53:42;;;;;;;1.50;0.83;;;9.80;84.40;9.80;101568.00;;;;5012951;27;87846;-63
2022/08/07 02:56:17;;;;;;;1.00;0.80;;;9.80;84.80;9.80;101570.00;;;;5013272;27;110589;-63
2022/08/07 02:58:43;;;;;;;0.80;0.60;;;9.80;85.10;9.80;101564.00;;;;4996706;27;87184;-63
2022/08/07 03:01:10;;;;;;;1.07;0.80;;;9.80;85.30;9.80;101564.00;;;;5012418;27;95743;-63
2022/08/07 03:03:37;;;;;;;1.60;0.60;;;9.80;85.40;9.80;101559.00;;;;5012105;27;88294;-63
2022/08/07 03:06:04;;;;;;;0.47;0.47;;;9.80;85.70;9.80;101568.00;;;;5011207;27;91714;-63
2022/08/07 03:08:30;;;;;;;1.07;0.80;;;9.80;85.90;9.70;101576.00;;;;4993731;27;95244;-63
2022/08/07 03:10:57;;;;;;;0.70;0.70;;;9.80;86.10;9.70;101565.00;;;;5015547;27;116509;-62
2022/08/07 03:13:23;;;;;;;1.57;0.60;;;9.80;86.30;9.70;101561.00;;;;5012560;27;87996;-62
2022/08/07 03:15:49;;;;;;;0.63;0.60;;;9.70;86.60;9.70;101564.00;;;;5014206;27;87714;-63
2022/08/07 03:18:16;;;;;;;0.53;0.53;;;9.70;86.90;9.70;101570.00;;;;5013457;27;109885;-62
2022/08/07 03:20:43;;;;;;;0.97;0.57;;;9.70;87.10;9.70;101561.00;;;;5015801;27;89031;-63
2022/08/07 03:23:10;;;;;;;0.67;0.67;;;9.70;87.60;9.70;101562.00;;;;5028591;27;116428;-63
2022/08/07 03:25:39;;;;;;;0.70;0.70;;;9.70;87.90;9.80;101554.00;;;;5013833;27;92316;-63
2022/08/07 03:28:09;;;;;;;2.07;1.10;;;9.80;88.20;9.80;101555.00;;;;5015426;27;89889;-63
2022/08/07 03:30:35;;;;;;;0.67;0.67;;;9.80;88.50;9.80;101553.00;;;;5010642;27;102357;-63
2022/08/07 03:33:02;;;;;;;1.03;0.80;;;9.80;88.80;9.80;101557.00;;;;5014196;27;89193;-63
2022/08/07 03:35:29;;;;;;;0.53;0.53;;;9.80;89.30;9.80;101552.00;;;;5012439;27;99464;-63
2022/08/07 03:38:00;;;;;;;1.33;1.00;;;9.80;89.70;9.80;101548.00;;;;5009755;27;107256;-63
2022/08/07 03:40:27;;;;;;;0.40;0.40;;;9.80;90.00;9.80;101551.00;;;;5014582;27;87774;-63
2022/08/07 03:42:54;;;;;;;0.57;0.57;;;9.80;90.10;9.80;101544.00;;;;5015701;27;87731;-63
2022/08/07 03:45:23;;;;;;;0.40;0.40;;;9.80;90.30;9.80;101548.00;;;;5013293;27;97039;-63
2022/08/07 03:47:50;;;;;;;0.70;0.70;;;9.80;90.50;9.80;101558.00;;;;4999796;27;87171;-63
2022/08/07 03:50:18;;;;;;;1.03;0.57;;;9.80;90.60;9.80;101554.00;;;;5020001;27;88396;-63
2022/08/07 03:52:47;;;;;;;1.27;0.77;;;9.80;90.80;9.80;101550.00;;;;5004516;27;88049;-63
2022/08/07 03:55:12;;;;;;;10.07;0.80;;;9.80;90.90;9.80;101551.00;;;;4995965;27;88713;-62
2022/08/07 03:57:40;;;;;;;0.50;0.50;;;9.80;91.10;9.80;101550.00;;;;4995067;27;107516;-63
2022/08/07 04:00:07;;;;;;;0.83;0.57;;;9.80;91.30;9.80;101554.00;;;;5009612;27;118339;-62
2022/08/07 04:02:34;;;;;;;2.73;1.13;;;9.80;91.50;9.80;101541.00;;;;5006055;27;87676;-62
2022/08/07 04:04:59;;;;;;;0.77;0.67;;;9.80;91.60;9.80;101552.00;;;;5011690;27;96930;-63
2022/08/07 04:07:25;;;;;;;0.60;0.60;;;9.80;91.80;9.90;101550.00;;;;5013053;27;109442;-63
2022/08/07 04:09:52;;;;;;;0.67;0.50;;;9.90;91.80;9.90;101548.00;;;;5013769;27;116188;-63
2022/08/07 04:12:18;;;;;;;0.67;0.60;;;9.90;91.70;10.00;101543.00;;;;5006013;27;117751;-62
2022/08/07 04:14:44;;;;;;;0.47;0.40;;;10.00;91.70;10.00;101555.00;;;;5010350;27;109674;-63
2022/08/07 04:17:11;;;;;;;1.07;0.67;;;10.00;91.70;10.00;101552.00;;;;4996268;27;108469;-63
2022/08/07 04:19:40;;;;;;;0.70;0.53;;;10.10;91.70;10.10;101550.00;;;;4994536;27;89514;-62
2022/08/07 04:22:06;;;;;;;0.67;0.67;;;10.10;91.70;10.10;101553.00;;;;5016884;27;88813;-63
2022/08/07 04:24:33;;;;;;;0.90;0.60;;;10.10;91.70;10.10;101555.00;;;;5014057;27;87819;-62
2022/08/07 04:27:01;;;;;;;0.50;0.50;;;10.10;91.70;10.10;101547.00;;;;5012794;27;87864;-63
2022/08/07 04:29:27;;;;;;;1.13;0.70;;;10.20;91.70;10.10;101556.00;;;;5013336;27;88807;-63
2022/08/07 04:31:53;;;;;;;1.17;0.50;;;10.20;91.70;10.10;101558.00;;;;5014912;27;88695;-62
2022/08/07 04:34:21;;;;;;;0.57;0.57;;;10.20;91.70;10.20;101555.00;;;;5013637;27;100805;-62
2022/08/07 04:36:47;;;;;;;2.40;0.77;;;10.20;91.70;10.30;101563.00;;;;5011493;27;87896;-62
2022/08/07 04:39:13;;;;;;;2.87;0.80;;;10.30;91.70;10.30;101559.00;;;;5011763;27;118035;-62
2022/08/07 04:41:39;;;;;;;0.97;0.63;;;10.40;91.80;10.40;101563.00;;;;5015222;27;87720;-63
2022/08/07 04:44:05;;;;;;;0.30;0.30;;;10.40;91.70;10.50;101560.00;;;;5029261;27;109706;-63
2022/08/07 04:46:51;;;;;;;0.50;0.40;;;10.50;91.70;10.60;101562.00;;;;5010788;27;91071;-63
2022/08/07 04:49:44;;;;;;;1.07;0.50;;;10.60;91.70;10.70;101559.00;;;;4992229;28;107476;-63
2022/08/07 04:52:52;;;;;;;0.33;0.33;;;10.70;91.60;10.90;101562.00;;;;5003280;27;88202;-63
2022/08/07 04:55:29;;;;;;;2.10;0.70;;;10.90;91.50;11.10;101558.00;;;;4994458;27;88360;-63
2022/08/07 04:58:29;;;;;;;0.90;0.87;;;11.10;91.40;11.30;101570.00;;;;4995364;27;97923;-63
2022/08/07 05:01:20;;;;;;;0.97;0.63;;;11.30;91.30;11.50;101569.00;;;;5009417;27;110583;-63
2022/08/07 05:04:10;;;;;;;0.40;0.40;;;11.50;91.10;11.80;101581.00;;;;5012511;27;102579;-63
2022/08/07 05:07:13;;;;;;;1.03;0.70;;;11.70;91.00;12.00;101576.00;;;;5009798;27;101199;-63
2022/08/07 05:09:59;;;;;;;0.80;0.80;;;11.90;90.80;12.30;101569.00;;;;5004765;27;87774;-63
2022/08/07 05:12:35;;;;;;;0.63;0.63;;;12.20;90.60;12.50;101584.00;;;;5008577;27;88478;-63
2022/08/07 05:15:20;;;;;;;1.63;0.60;;;12.40;90.40;12.70;101585.00;;;;4988509;27;110512;-63
2022/08/07 05:17:56;;;;;;;0.90;0.83;;;12.60;90.10;13.00;101579.00;;;;4993127;27;88472;-63
2022/08/07 05:20:32;;;;;;;0.67;0.50;;;12.90;90.00;13.20;101585.00;;;;4988542;27;96625;-63
2022/08/07 05:23:07;;;;;;;0.73;0.73;;;13.10;89.50;13.50;101593.00;;;;4992502;27;88184;-63
2022/08/07 05:25:34;;;;;;;1.90;0.60;;;13.30;88.90;13.70;101590.00;;;;4989746;27;88156;-63
2022/08/07 05:28:01;;;;;;;0.80;0.77;;;13.50;88.20;13.80;101586.00;;;;5005112;27;87996;-63
2022/08/07 05:30:28;;;;;;;1.53;0.50;;;13.70;87.80;14.10;101583.00;;;;4988019;27;101712;-63
2022/08/07 05:32:55;;;;;;;1.23;0.70;;;13.90;87.30;14.30;101577.00;;;;4990074;27;89027;-63
2022/08/07 05:35:22;;;;;;;0.73;0.53;;;14.10;86.70;14.50;101586.00;;;;4993993;27;117416;-63
2022/08/07 05:37:49;;;;;;;1.10;0.90;;;14.30;86.20;14.70;101581.00;;;;4996574;27;100987;-63
2022/08/07 05:40:16;;;;;;;0.97;0.47;;;14.50;85.70;14.90;101587.00;;;;4975544;28;87759;-64
2022/08/07 05:42:44;;;;;;;0.83;0.67;;;14.70;85.20;15.10;101589.00;;;;4998546;27;89209;-63
2022/08/07 05:45:10;;;;;;;0.30;0.30;;;15.00;84.90;15.40;101589.00;;;;4994458;27;103388;-63
2022/08/07 05:47:36;;;;;;;1.33;0.57;;;15.20;84.70;15.60;101586.00;;;;4996544;27;102103;-63
2022/08/07 05:50:04;;;;;;;4.80;0.50;;;15.40;84.40;15.90;101588.00;;;;4991247;27;106263;-63
2022/08/07 05:52:30;;;;;;;0.50;0.50;;;15.70;84.00;16.10;101589.00;;;;4993478;27;92364;-63
2022/08/07 05:54:56;;;;;;;0.55;0.55;;;15.90;83.60;16.30;101596.00;;;;5004659;27;117684;-64
2022/08/07 05:57:23;;;;;;;0.63;0.50;;;16.10;83.10;16.60;101590.00;;;;4992340;27;88016;-64
2022/08/07 05:59:50;;;;;;;0.60;0.60;;;16.30;82.70;16.90;101588.00;;;;4995534;27;88434;-63
2022/08/07 06:02:19;;;;;;;0.73;0.43;;;16.60;82.20;17.10;101598.00;;;;5006351;27;120040;-64
2022/08/07 06:04:57;;;;;;;0.38;0.38;;;16.90;81.70;17.40;101597.00;;;;4993977;27;88744;-64
2022/08/07 06:07:24;;;;;;;0.40;0.40;;;17.20;81.10;17.70;101602.00;;;;4995928;27;87987;-64
2022/08/07 06:09:50;;;;;;;0.50;0.50;;;17.50;80.40;17.90;101602.00;;;;4994836;27;87776;-64
2022/08/07 06:12:15;;;;;;;1.42;0.50;;;17.70;79.80;18.10;101606.00;;;;4990684;27;117345;-64
2022/08/07 06:14:42;;;;;;;0.55;0.55;;;17.90;79.30;18.30;101602.00;;;;4994142;27;116707;-64
2022/08/07 06:17:09;;;;;;;1.10;0.65;;;18.10;78.80;18.50;101595.00;;;;5001357;27;87778;-64
2022/08/07 06:19:35;;;;;;;0.88;0.52;;;18.30;78.20;18.70;101607.00;;;;4994288;27;87002;-64
2022/08/07 06:22:01;;;;;;;0.30;0.30;;;18.50;77.80;19.00;101598.00;;;;4990485;27;117265;-64
2022/08/07 06:24:28;;;;;;;0.40;0.40;;;18.70;76.90;19.20;101595.00;;;;4990642;27;101668;-64
2022/08/07 06:26:54;;;;;;;0.75;0.57;;;18.90;75.80;19.40;101592.00;;;;4993296;27;110714;-64
2022/08/07 06:29:27;;;;;;;0.40;0.40;;;19.10;74.90;19.60;101590.00;;;;4996732;27;102023;-64
2022/08/07 06:31:52;;;;;;;1.05;0.60;;;19.40;73.80;19.80;101588.00;;;;4995330;27;88198;-64
2022/08/07 06:34:18;;;;;;;1.13;0.75;;;19.60;70.90;20.00;101600.00;;;;4992089;27;115573;-66
2022/08/07 06:36:44;;;;;;;0.85;0.40;;;19.70;69.30;20.10;101590.00;;;;5002749;27;87965;-64
2022/08/07 06:39:09;;;;;;;0.45;0.45;;;19.90;68.50;20.30;101594.00;;;;4999322;27;109926;-64
2022/08/07 06:41:47;;;;;;;0.90;0.70;;;20.00;67.60;20.50;101599.00;;;;4991983;27;117174;-65
2022/08/07 06:44:14;;;;;;;0.77;0.60;;;20.20;66.00;20.60;101601.00;;;;4992369;27;88578;-65
2022/08/07 06:46:40;;;;;;;1.42;0.95;;;20.30;65.40;20.70;101601.00;;;;4993792;27;109768;-65
2022/08/07 06:49:06;;;;;;;0.30;0.30;;;20.50;64.60;20.90;101588.00;;;;4990931;27;109999;-65
2022/08/07 06:51:34;;;;;;;0.65;0.60;;;20.60;64.10;21.10;101599.00;;;;4996652;27;118963;-65
2022/08/07 06:54:03;;;;;;;0.57;0.40;;;20.80;64.10;21.30;101596.00;;;;4999350;27;89424;-65
2022/08/07 06:56:39;;;;;;;0.63;0.57;;;21.30;63.30;21.50;101602.00;;;;4993364;27;87664;-65
2022/08/07 06:59:19;;;;;;;0.47;0.47;;;21.20;61.80;21.80;101598.00;;;;4999476;27;87909;-65
2022/08/07 07:01:47;;;;;;;0.80;0.80;;;21.50;60.50;22.10;101596.00;;;;4992674;27;88194;-65
2022/08/07 07:04:13;;;;;;;1.30;0.70;;;21.80;60.30;22.50;101602.00;;;;4992209;27;87843;-65
2022/08/07 07:06:39;;;;;;;0.55;0.50;;;22.10;59.80;22.80;101604.00;;;;4990672;27;89612;-65
2022/08/07 07:09:22;;;;;;;1.17;0.75;;;22.40;59.10;23.20;101598.00;;;;4989343;27;108812;-65
2022/08/07 07:12:06;;;;;;;0.28;0.28;;;22.90;58.30;23.50;101604.00;;;;4993477;27;87823;-65
2022/08/07 07:14:57;;;;;;;1.83;0.77;;;23.20;57.20;23.80;101599.00;;;;4992513;27;87813;-63
2022/08/07 07:17:47;;;;;;;0.47;0.47;;;23.50;55.50;24.10;101590.00;;;;4997797;27;89002;-65
2022/08/07 07:20:19;;;;;;;0.30;0.30;;;23.80;54.70;24.30;101590.00;;;;4993487;27;88069;-64
2022/08/07 07:22:46;;;;;;;0.55;0.40;;;24.00;54.00;24.60;101597.00;;;;4990803;27;104530;-65
2022/08/07 07:25:14;;;;;;;1.77;0.47;;;24.30;53.80;24.90;101591.00;;;;5007204;27;88391;-65
2022/08/07 07:27:51;;;;;;;0.22;0.20;;;24.60;53.30;25.20;101583.00;;;;5006923;27;92774;-64
2022/08/07 07:30:22;;;;;;;3.00;0.68;;;24.90;52.60;25.50;101593.00;;;;4989985;27;88628;-65
2022/08/07 07:32:48;;;;;;;1.75;0.68;;;25.20;51.90;25.70;101590.00;;;;4991387;27;87975;-66
2022/08/07 07:35:15;;;;;;;0.95;0.50;;;25.40;51.30;26.00;101600.00;;;;4991346;27;118408;-65
2022/08/07 07:37:43;;;;;;;0.95;0.82;;;25.70;50.70;26.20;101600.00;;;;4990249;27;110478;-66
2022/08/07 07:40:15;;;;;;;0.25;0.25;;;25.90;50.10;26.40;101593.00;;;;4988949;27;108383;-66
2022/08/07 07:42:43;;;;;;;0.52;0.50;;;26.20;49.40;26.70;101587.00;;;;4989210;27;97809;-65
2022/08/07 07:45:11;;;;;;;1.35;0.63;;;26.40;48.40;26.90;101584.00;;;;4989600;27;103532;-66
2022/08/07 07:47:42;;;;;;;0.60;0.30;;;26.60;46.10;27.00;101584.00;;;;4991292;27;88110;-65
2022/08/07 07:50:10;;;;;;;1.52;0.45;;;26.70;45.70;27.10;101578.00;;;;4990781;27;87781;-66
2022/08/07 07:52:38;;;;;;;0.82;0.45;;;26.90;45.50;27.30;101580.00;;;;4994506;27;88052;-66
2022/08/07 07:55:06;;;;;;;0.10;0.10;;;27.00;44.10;27.30;101573.00;;;;5000273;27;88225;-65
2022/08/07 07:57:34;;;;;;;0.40;0.40;;;27.10;42.30;27.30;101563.00;;;;5000114;27;88125;-65
2022/08/07 08:00:01;;;;;;;0.20;0.20;;;27.10;40.90;27.40;101574.00;;;;4996332;27;87377;-65
2022/08/07 08:02:29;;;;;;;0.22;0.22;;;27.10;41.50;27.50;101564.00;;;;4992688;27;88312;-66
2022/08/07 08:04:55;;;;;;;0.20;0.20;;;27.20;41.00;27.60;101571.00;;;;4991161;27;116788;-66
2022/08/07 08:07:23;;;;;;;0.75;0.20;;;27.40;39.50;27.70;101574.00;;;;4991003;27;88571;-65
2022/08/07 08:09:52;;;;;;;0.10;0.10;;;27.40;38.60;27.80;101569.00;;;;4995448;27;87842;-65
2022/08/07 08:12:18;;;;;;;1.30;0.20;;;27.50;38.90;27.90;101570.00;;;;4994756;27;107113;-63
2022/08/07 08:14:44;;;;;;;0.47;0.20;;;27.60;38.70;28.00;101568.00;;;;4992456;27;117321;-65
2022/08/07 08:17:12;;;;;;;0.10;0.10;;;27.70;38.60;28.10;101569.00;;;;4992681;27;87790;-65
2022/08/07 08:19:39;;;;;;;0.30;0.30;;;27.90;37.30;28.10;101576.00;;;;4993049;27;87855;-65
2022/08/07 08:27:41;;;;;;;0.47;0.17;;;27.80;35.30;27.60;101580.00;;;;4995574;27;87830;-66
2022/08/07 08:30:12;;;;;;;0.00;0.00;;;27.50;35.70;27.70;101587.00;;;;4990100;27;87696;-63
2022/08/07 08:32:52;;;;;;;0.73;0.30;;;27.50;36.20;27.80;101583.00;;;;5004182;27;89221;-64
2022/08/07 08:35:23;;;;;;;0.70;0.32;;;27.50;35.20;27.60;101569.00;;;;4990746;27;89503;-65
2022/08/07 08:37:55;;;;;;;0.25;0.20;;;27.40;33.70;27.20;101570.00;;;;4996773;27;87972;-64
2022/08/07 08:40:35;;;;;;;0.32;0.15;;;27.10;34.20;26.90;101579.00;;;;4991514;27;101319;-64
2022/08/07 08:43:39;;;;;;;0.30;0.22;;;26.90;35.60;26.80;101584.00;;;;5011854;27;108678;-64
2022/08/07 08:46:20;;;;;;;0.15;0.15;;;26.70;35.80;26.60;101581.00;;;;4989488;27;97030;-65
2022/08/07 08:49:00;;;;;;;0.17;0.17;;;26.50;36.10;26.40;101569.00;;;;5000453;27;87950;-64
2022/08/07 08:52:21;;;;;;;0.70;0.28;;;26.30;36.30;26.30;101577.00;;;;4996761;27;87367;-64
2022/08/07 08:54:54;;;;;;;0.40;0.35;;;26.10;36.60;26.50;101572.00;;;;4987932;27;87908;-64
2022/08/07 08:57:41;;;;;;;0.40;0.40;;;26.10;36.80;26.80;101567.00;;;;5007641;27;101831;-64
2022/08/07 09:00:09;;;;;;;0.30;0.30;;;26.30;36.40;26.70;101570.00;;;;4988447;27;88772;-64
2022/08/07 09:02:56;;;;;;;0.30;0.30;;;26.40;36.10;26.50;101569.00;;;;4993560;27;87700;-63
2022/08/07 09:05:37;;;;;;;1.00;0.60;;;26.30;36.30;26.60;101571.00;;;;4988449;27;109859;-64
2022/08/07 09:08:40;;;;;;;0.15;0.15;;;26.20;36.50;26.80;101569.00;;;;4991598;27;89499;-65
2022/08/07 09:11:12;;;;;;;0.20;0.20;;;26.40;36.90;27.10;101574.00;;;;4997032;27;88152;-65
2022/08/07 09:14:01;;;;;;;0.93;0.32;;;26.60;36.80;27.30;101570.00;;;;4995940;27;87725;-65
2022/08/07 09:16:46;;;;;;;0.20;0.20;;;26.90;36.30;27.10;101567.00;;;;4977122;27;89468;-65
2022/08/07 09:19:47;;;;;;;0.57;0.40;;;26.90;35.80;26.90;101568.00;;;;5007239;27;87243;-65
2022/08/07 09:22:50;;;;;;;0.30;0.30;;;26.70;35.90;26.70;101569.00;;;;4994241;27;88105;-64
2022/08/07 09:25:25;;;;;;;0.25;0.20;;;26.50;36.40;26.50;101571.00;;;;4998921;27;88242;-65
2022/08/07 09:28:07;;;;;;;0.45;0.10;;;26.30;36.70;26.40;101566.00;;;;4994535;27;89135;-65
2022/08/07 09:31:16;;;;;;;0.20;0.20;;;26.20;36.60;26.30;101557.00;;;;5013066;27;89187;-64
2022/08/07 09:34:20;;;;;;;0.20;0.20;;;26.10;36.60;26.50;101552.00;;;;4993102;27;101763;-65
2022/08/07 09:37:01;;;;;;;0.13;0.13;;;26.10;36.60;26.80;101561.00;;;;4992444;27;87996;-65
2022/08/07 09:39:49;;;;;;;0.50;0.50;;;26.40;36.50;27.20;101559.00;;;;4995051;27;88989;-64
2022/08/07 09:42:42;;;;;;;0.40;0.40;;;26.60;36.20;27.60;101560.00;;;;4997401;27;96249;-65
2022/08/07 09:45:42;;;;;;;0.43;0.30;;;27.00;35.20;27.70;101557.00;;;;4991326;27;102463;-65
2022/08/07 09:48:53;;;;;;;0.68;0.20;;;27.20;34.90;28.10;101545.00;;;;4996408;27;86878;-65
2022/08/07 09:52:02;;;;;;;0.20;0.20;;;27.50;35.30;28.50;101551.00;;;;4993299;27;87927;-64
2022/08/07 09:54:43;;;;;;;0.30;0.30;;;27.80;34.70;28.90;101546.00;;;;4996208;27;88609;-65
2022/08/07 09:57:46;;;;;;;0.10;0.10;;;28.30;33.90;29.30;101545.00;;;;5009654;27;88622;-65
2022/08/07 10:00:15;;;;;;;0.70;0.30;;;28.60;34.00;29.60;101541.00;;;;4994701;27;101235;-65
2022/08/07 10:03:12;;;;;;;0.32;0.22;;;29.00;33.80;30.00;101541.00;;;;5007971;27;87817;-65
2022/08/07 10:06:03;;;;;;;0.40;0.10;;;29.30;33.50;30.30;101537.00;;;;4991546;27;88702;-65
2022/08/07 10:09:12;;;;;;;0.40;0.13;;;29.70;32.50;30.70;101526.00;;;;4994147;27;87690;-65
2022/08/07 10:12:10;;;;;;;1.55;0.68;;;30.00;31.80;31.00;101533.00;;;;4997737;27;88062;-65
2022/08/07 10:15:00;;;;;;;0.20;0.20;;;30.30;30.60;31.00;101526.00;;;;4993680;27;91371;-66
2022/08/07 10:17:51;;;;;;;0.47;0.30;;;30.40;30.30;30.80;101527.00;;;;4993451;27;89450;-65
2022/08/07 10:20:31;;;;;;;0.20;0.10;;;30.40;30.00;30.30;101520.00;;;;4998192;27;92234;-65
2022/08/07 10:23:24;;;;;;;0.17;0.10;;;30.00;29.70;29.60;101517.00;;;;4992555;27;88051;-65
2022/08/07 10:26:20;;;;;;;0.30;0.30;;;29.40;30.20;29.40;101512.00;;;;4994170;27;90246;-66
2022/08/07 10:29:11;;;;;;;0.20;0.20;;;29.00;30.90;29.60;101509.00;;;;4994736;27;99383;-65
2022/08/07 10:32:06;;;;;;;0.40;0.40;;;29.00;31.50;29.90;101504.00;;;;4991723;27;87890;-66
2022/08/07 10:34:51;;;;;;;0.15;0.15;;;29.20;31.00;30.00;101506.00;;;;4992918;27;88041;-65
2022/08/07 10:38:00;;;;;;;1.25;0.30;;;29.40;31.00;30.20;101496.00;;;;5007478;27;93029;-65
2022/08/07 10:40:52;;;;;;;0.13;0.10;;;29.50;30.90;30.40;101497.00;;;;4990775;27;102917;-65
2022/08/07 10:43:29;;;;;;;0.10;0.10;;;29.70;30.40;30.50;101495.00;;;;4994888;27;96877;-66
2022/08/07 10:46:00;;;;;;;0.32;0.32;;;29.80;30.10;30.50;101494.00;;;;5008677;27;101069;-66
2022/08/07 10:49:09;;;;;;;0.10;0.10;;;29.80;30.00;30.40;101490.00;;;;4992686;27;112006;-66
2022/08/07 10:51:50;;;;;;;0.40;0.40;;;29.80;29.20;30.20;101492.00;;;;4991286;27;87757;-66
2022/08/07 10:54:43;;;;;;;0.20;0.20;;;29.60;29.70;30.20;101487.00;;;;4999820;27;88823;-66
2022/08/07 10:57:21;;;;;;;0.10;0.10;;;29.60;29.60;30.10;101478.00;;;;4996014;27;87942;-66
2022/08/07 10:59:50;;;;;;;0.30;0.20;;;29.50;29.30;30.10;101469.00;;;;4999128;27;88003;-65
2022/08/07 11:02:32;;;;;;;0.32;0.32;;;29.50;29.70;30.50;101474.00;;;;4992990;27;87868;-65
2022/08/07 11:05:23;;;;;;;0.35;0.30;;;29.70;29.60;30.80;101474.00;;;;4991386;27;87891;-65
2022/08/07 11:08:26;;;;;;;1.45;0.40;;;30.00;29.80;31.20;101469.00;;;;4990465;27;100227;-65
2022/08/07 11:11:13;;;;;;;0.57;0.40;;;30.30;30.00;31.70;101463.00;;;;4992542;27;89139;-66
2022/08/07 11:13:55;;;;;;;0.20;0.20;;;30.80;29.40;31.90;101464.00;;;;5008070;27;109017;-65
2022/08/07 11:16:52;;;;;;;0.05;0.05;;;31.00;29.10;32.10;101459.00;;;;4992933;27;93264;-65
2022/08/07 11:19:37;;;;;;;0.20;0.20;;;31.20;29.20;32.10;101450.00;;;;4997762;27;87685;-66
2022/08/07 11:22:26;;;;;;;0.20;0.20;;;31.40;28.60;32.10;101454.00;;;;4990636;27;89268;-64